Latest Weather Observations for Jandakot

IDW60801

Issued at 3:34 pm WST Tuesday 28 February 2017 (issued every 30 minutes, with the page automatically refreshed every 10 minutes)

About weather observations | Map of weather stations | Latest weather observations for WA | Other Formats
Station Details ID: 009172 Name: JANDAKOT AERO Lat: -32.10 Lon: 115.88 Height: 30.0 m
Data from the previous 72 hours. | See also: Recent months at Jandakot
Date/Time
WST
Temp
°C
App
Temp
°C
Dew
Point
°C
Rel
Hum
%
Delta-T
°C
Wind Press
QNH
hPa
Press
MSL
hPa
Rain since
9am
mm
Dir  Spd
km/h
Gust
km/h
Spd
kts
Gust
kts
28/03:30pm 29.8 27.4 16.3 44 8.4 WSW 24 32 13 17 1012.8 1012.6 0.0
28/03:00pm 29.7 27.5 16.8 45 8.1 WSW 24 30 13 16 1012.9 1012.7 0.0
28/02:30pm 30.2 28.4 16.9 44 8.4 WSW 22 26 12 14 1013.0 1012.8 0.0
28/02:00pm 30.1 28.4 17.1 45 8.2 WSW 22 26 12 14 1013.2 1013.0 0.0
28/01:30pm 29.8 28.1 17.3 47 7.9 WSW 22 26 12 14 1013.5 1013.3 0.0
28/01:00pm 30.8 29.3 17.8 45 8.3 WSW 22 26 12 14 1013.8 1013.6 0.0
28/12:30pm 31.0 30.3 17.3 43 8.7 W 17 24 9 13 1014.0 1013.8 0.0
28/12:00pm 30.8 31.5 16.0 40 9.2 SSW 7 13 4 7 1014.3 1014.1 0.0
28/11:30am 30.4 30.2 15.7 41 9.1 SSW 11 17 6 9 1014.7 1014.5 0.0
28/11:00am 29.3 29.6 16.1 44 8.2 ENE 9 15 5 8 1015.0 1014.8 0.0
28/10:30am 27.9 27.6 15.5 46 7.6 ESE 11 19 6 10 1015.3 1015.1 0.0
28/10:00am 26.5 26.2 15.5 50 6.7 ESE 11 20 6 11 1015.3 1015.1 0.0
28/09:30am 25.3 23.6 14.8 52 6.3 ESE 17 22 9 12 1015.3 1015.1 0.0
28/09:00am 24.7 23.0 14.6 53 6.0 ESE 17 24 9 13 1015.5 1015.4 0.0
28/08:30am 23.3 22.2 14.3 57 5.3 SSE 13 17 7 9 1015.6 1015.5 0.0
28/08:00am 22.5 21.8 14.3 59 4.8 ESE 11 17 6 9 1015.9 1015.8 0.0
28/07:30am 21.5 20.5 14.5 64 4.1 SE 13 17 7 9 1015.8 1015.7 0.0
28/07:00am 20.3 19.0 14.7 70 3.3 SSE 15 19 8 10 1015.9 1015.8 0.0
28/06:30am 18.7 17.7 14.7 77 2.3 SSE 13 15 7 8 1015.7 1015.6 0.0
28/06:00am 17.8 17.9 15.4 86 1.4 SSE 9 13 5 7 1015.6 1015.5 0.0
28/05:30am 17.8 18.3 15.6 87 1.3 SSE 7 9 4 5 1015.3 1015.1 0.0
28/05:00am 18.2 18.0 15.8 86 1.4 S 11 13 6 7 1015.1 1014.9 0.0
28/04:30am 18.3 18.3 16.3 88 1.2 S 11 15 6 8 1015.0 1014.8 0.0
28/04:00am 18.0 18.9 16.5 91 0.9 S 7 9 4 5 1014.9 1014.7 0.0
28/03:30am 17.9 18.3 16.4 91 0.9 S 9 9 5 5 1014.8 1014.6 0.0
28/03:00am 18.0 18.6 16.7 92 0.8 S 9 13 5 7 1014.8 1014.6 0.0
28/02:30am 17.7 18.6 16.5 93 0.7 S 7 9 4 5 1014.9 1014.7 0.0
28/02:00am 17.6 18.0 16.4 93 0.7 SSE 9 11 5 6 1015.0 1014.8 0.0
28/01:30am 17.6 17.9 16.1 91 0.9 SSE 9 13 5 7 1015.2 1015.0 0.0
28/01:00am 17.8 18.7 16.6 93 0.7 S 7 9 4 5 1015.4 1015.3 0.0
28/12:30am 17.6 18.6 16.3 92 0.8 SSE 6 7 3 4 1015.7 1015.6 0.0
28/12:00am 18.0 18.9 16.7 92 0.8 SSE 7 9 4 5 1015.8 1015.7 0.0
 
Date/Time
WST
Temp
°C
App
Temp
°C
Dew
Point
°C
Rel
Hum
%
Delta-T
°C
Wind Press
QNH
hPa
Press
MSL
hPa
Rain since
9am
mm
Dir  Spd
km/h
Gust
km/h
Spd
kts
Gust
kts
27/11:30pm 18.6 20.0 17.3 92 0.8 SSE 6 7 3 4 1015.9 1015.8 0.0
27/11:00pm 19.5 20.9 17.7 89 1.1 SSE 7 9 4 5 1015.9 1015.8 0.0
27/10:30pm 20.5 20.9 18.2 87 1.4 SW 13 15 7 8 1016.2 1016.1 0.0
27/10:00pm 20.4 21.1 18.0 86 1.5 SSW 11 13 6 7 1016.1 1016.0 0.0
27/09:30pm 20.8 20.4 18.1 84 1.7 SW 17 20 9 11 1016.2 1016.1 0.0
27/09:00pm 20.7 20.7 18.1 85 1.6 SW 15 19 8 10 1015.7 1015.6 0.0
27/08:30pm 20.5 20.5 17.2 81 2.0 SW 13 17 7 9 1015.4 1015.3 0.0
27/08:00pm 21.3 21.1 16.7 75 2.8 SSW 13 15 7 8 1015.0 1014.8 0.0
27/07:30pm 21.9 21.0 16.8 73 3.1 SW 17 20 9 11 1015.0 1014.8 0.0
27/07:00pm 22.5 21.6 16.8 70 3.5 SW 17 24 9 13 1014.9 1014.7 0.0
27/06:30pm 23.5 21.9 16.5 65 4.3 SW 20 24 11 13 1014.8 1014.6 0.0
27/06:00pm 24.3 22.2 16.1 60 5.0 SW 22 30 12 16 1014.6 1014.4 0.0
27/05:30pm 24.9 21.3 15.3 55 5.8 SW 28 35 15 19 1014.4 1014.2 0.0
27/05:00pm 26.0 22.8 14.2 48 7.0 SW 24 33 13 18 1014.2 1014.0 0.0
27/04:30pm 27.1 24.4 15.7 49 7.0 SW 24 32 13 17 1014.0 1013.8 0.0
27/04:00pm 27.6 23.9 14.0 43 8.1 SW 26 33 14 18 1013.9 1013.7 0.0
27/03:30pm 28.0 24.5 14.6 44 8.1 WSW 26 32 14 17 1013.9 1013.7 0.0
27/03:00pm 27.8 24.0 14.7 44 7.9 SW 28 35 15 19 1014.0 1013.8 0.0
27/02:30pm 28.2 25.4 15.3 45 7.9 WSW 24 30 13 16 1014.0 1013.8 0.0
27/02:00pm 28.7 26.2 13.6 39 9.0 SW 19 24 10 13 1014.1 1013.9 0.0
27/01:30pm 28.5 26.3 13.3 39 9.0 SW 17 24 9 13 1014.2 1014.0 0.0
27/01:00pm 28.7 26.6 13.6 39 9.0 SW 17 24 9 13 1014.4 1014.2 0.0
27/12:30pm 28.9 27.0 14.1 40 8.9 SW 17 24 9 13 1014.5 1014.3 0.0
27/12:00pm 28.4 26.4 13.8 40 8.7 W 17 26 9 14 1014.7 1014.5 0.0
27/11:30am 28.1 26.5 12.7 38 9.0 SSW 13 17 7 9 1015.0 1014.8 0.0
27/11:00am 26.6 25.9 13.1 43 7.9 SSE 9 13 5 7 1015.3 1015.1 0.0
27/10:30am 25.7 25.1 12.3 43 7.7 SSW 7 13 4 7 1015.5 1015.4 0.0
27/10:00am 24.6 23.7 12.6 47 6.9 SSE 9 13 5 7 1015.6 1015.5 0.0
27/09:30am 23.7 23.2 12.7 50 6.3 ENE 7 17 4 9 1015.5 1015.4 0.0
27/09:00am 22.6 22.3 12.6 53 5.7 ENE 6 13 3 7 1015.8 1015.7 0.0
27/08:30am 21.4 20.9 12.6 57 5.0 S 7 11 4 6 1015.7 1015.6 0.0
27/08:00am 20.5 19.8 13.3 63 4.1 SSE 9 11 5 6 1015.6 1015.5 0.0
27/07:30am 18.3 16.9 13.5 73 2.7 S 13 15 7 8 1015.2 1015.0 0.0
27/07:00am 15.7 16.0 14.5 93 0.7 S 6 9 3 5 1015.0 1014.8 0.0
27/06:30am 14.1 14.8 13.4 96 0.4 S 2 6 1 3 1014.8 1014.6 0.0
27/06:16am 13.6 14.6 13.1 97 0.3 CALM 0 4 0 2 1014.5 1014.3 0.0
27/06:02am 13.3 13.0 12.7 96 0.3 SE 6 7 3 4 1014.3 1014.1 0.0
27/06:00am 13.2 12.9 12.8 97 0.2 SE 6 7 3 4 1014.3 1014.1 0.0
27/05:30am 13.5 14.1 13.0 97 0.3 SSE 2 7 1 4 1014.0 1013.8 0.0
27/05:00am 14.4 15.1 13.5 94 0.5 S 2 6 1 3 1013.9 1013.7 0.0
27/04:30am 14.7 15.1 13.8 94 0.5 S 4 6 2 3 1013.7 1013.5 0.0
27/04:00am 14.7 14.4 13.3 91 0.8 SSE 7 9 4 5 1013.7 1013.5 0.0
27/03:30am 15.9 15.6 14.3 90 0.9 SSE 9 11 5 6 1013.6 1013.4 0.0
27/03:00am 16.6 16.0 14.5 87 1.2 S 11 13 6 7 1013.4 1013.2 0.0
27/02:30am 17.1 16.1 14.7 86 1.4 S 13 15 7 8 1013.4 1013.2 0.0
27/02:00am 17.0 17.0 15.1 88 1.1 S 9 11 5 6 1013.7 1013.5 0.0
27/01:30am 17.6 17.7 15.6 88 1.2 S 9 11 5 6 1013.9 1013.7 0.0
27/01:00am 17.8 17.7 16.1 90 1.0 SSW 11 15 6 8 1014.1 1013.9 0.0
27/12:30am 16.9 18.8 15.7 93 0.7 CALM 0 7 0 4 1014.0 1013.8 0.0
27/12:00am 17.2 19.2 16.0 93 0.7 CALM 0 6 0 3 1013.9 1013.7 0.0
 
Date/Time
WST
Temp
°C
App
Temp
°C
Dew
Point
°C
Rel
Hum
%
Delta-T
°C
Wind Press
QNH
hPa
Press
MSL
hPa
Rain since
9am
mm
Dir  Spd
km/h
Gust
km/h
Spd
kts
Gust
kts
26/11:30pm 17.6 18.6 16.3 92 0.8 SSE 6 7 3 4 1014.0 1013.8 0.0
26/11:00pm 18.8 19.7 16.5 86 1.4 S 7 7 4 4 1014.0 1013.8 0.0
26/10:30pm 19.7 20.3 16.9 84 1.7 SSW 9 17 5 9 1014.3 1014.1 0.0
26/10:00pm 20.1 19.2 16.8 81 2.0 SSW 17 24 9 13 1014.2 1014.0 0.0
26/09:30pm 20.3 19.7 16.7 80 2.2 SSW 15 20 8 11 1014.2 1014.0 0.0
26/09:00pm 20.5 19.5 16.5 78 2.4 SSW 17 20 9 11 1014.1 1013.9 0.0
26/08:30pm 20.7 19.7 16.6 77 2.5 SSW 17 20 9 11 1014.0 1013.8 0.0
26/08:00pm 20.9 19.4 16.4 75 2.7 SW 19 24 10 13 1013.7 1013.5 0.0
26/07:30pm 21.1 19.6 16.3 74 2.9 SSW 19 24 10 13 1013.5 1013.3 0.0
26/07:00pm 21.5 19.4 16.2 72 3.2 SSW 22 30 12 16 1013.5 1013.3 0.0
26/06:30pm 22.4 19.6 16.3 68 3.7 SW 26 33 14 18 1013.3 1013.1 0.0
26/06:00pm 23.5 21.9 16.5 65 4.3 SW 20 28 11 15 1013.3 1013.1 0.0
26/05:30pm 24.6 22.2 16.5 60 5.0 SW 24 28 13 15 1013.1 1012.9 0.0
26/05:00pm 25.2 23.0 17.0 60 5.1 WSW 24 28 13 15 1012.7 1012.5 0.0
26/04:30pm 25.8 24.0 16.9 58 5.5 WSW 22 28 12 15 1012.6 1012.4 0.0
26/04:00pm 26.9 25.4 16.8 54 6.3 SW 20 26 11 14 1012.3 1012.1 0.0
26/03:30pm 27.2 24.9 15.6 49 7.1 WSW 22 30 12 16 1012.0 1011.8 0.0
26/03:00pm 27.3 25.3 16.5 51 6.7 SW 22 30 12 16 1012.0 1011.8 0.0
26/02:30pm 26.8 25.0 15.9 51 6.7 WSW 20 26 11 14 1011.9 1011.7 0.0
26/02:00pm 26.8 25.3 16.7 54 6.3 WSW 20 28 11 15 1012.1 1011.9 0.0
26/01:30pm 26.9 24.9 16.4 52 6.5 W 22 28 12 15 1012.1 1011.9 0.0
26/01:00pm 26.4 24.8 16.5 54 6.1 WSW 20 28 11 15 1012.2 1012.0 0.0
26/12:30pm 26.5 24.8 17.2 56 5.8 WSW 22 32 12 17 1012.2 1012.0 0.0
26/12:00pm 28.1 26.6 17.7 53 6.6 W 22 28 12 15 1012.1 1011.9 0.0
26/11:30am 29.6 28.8 14.0 38 9.4 W 11 19 6 10 1012.1 1011.9 0.0
26/11:00am 28.2 28.8 15.7 46 7.7 S 7 13 4 7 1012.1 1011.9 0.0
26/10:30am 26.6 27.8 16.0 52 6.5 WSW 4 7 2 4 1012.4 1012.2 0.0
26/10:00am 25.7 26.1 16.3 56 5.8 SSW 9 15 5 8 1012.3 1012.1 0.0
26/09:30am 24.7 24.5 16.6 60 5.0 SSW 13 17 7 9 1012.1 1011.9 0.0
26/09:00am 23.3 23.8 16.6 66 4.1 S 9 13 5 7 1012.3 1012.1 0.0
26/08:30am 22.5 22.1 16.1 67 3.9 SSW 13 19 7 10 1012.3 1012.1 0.0
26/08:00am 21.0 20.6 15.3 70 3.4 WSW 11 13 6 7 1012.1 1011.9 0.0
26/07:30am 19.2 18.7 15.8 81 2.0 NNW 13 22 7 12 1012.2 1012.0 0.0
26/07:00am 18.1 19.9 16.4 90 1.0 ESE 2 7 1 4 1011.5 1011.3 0.0
26/06:30am 17.0 17.2 15.8 93 0.7 SSW 9 11 5 6 1011.0 1010.8 0.0
26/06:00am 17.1 17.4 15.9 93 0.7 WSW 9 13 5 7 1010.7 1010.5 0.0
26/05:30am 17.1 17.8 16.1 94 0.6 S 7 9 4 5 1010.5 1010.3 0.0
26/05:00am 17.6 17.3 16.4 93 0.7 SE 13 20 7 11 1010.3 1010.1 0.0
26/04:30am 18.2 18.3 16.5 90 1.0 SSE 11 13 6 7 1010.9 1010.7 0.0
26/04:00am 19.1 18.0 17.3 89 1.1 SSW 19 28 10 15 1010.9 1010.7 0.0
26/03:30am 18.3 19.7 17.3 94 0.6 SSE 6 9 3 5 1011.0 1010.8 0.0
26/03:00am 19.1 20.6 18.0 93 0.7 S 7 11 4 6 1011.1 1010.9 0.0
26/02:30am 19.1 21.7 17.6 91 0.9 CALM 0 6 0 3 1011.4 1011.2 0.0
26/02:00am 20.3 22.1 18.4 89 1.2 S 6 7 3 4 1011.4 1011.2 0.0
26/01:30am 20.8 22.2 18.7 88 1.3 SSW 9 11 5 6 1011.5 1011.3 0.0
26/01:00am 21.2 21.9 18.8 86 1.5 SSW 13 19 7 10 1011.6 1011.4 0.0
26/12:30am 21.4 22.0 18.5 83 1.8 SW 13 19 7 10 1011.6 1011.4 0.0
26/12:00am 22.0 21.8 17.5 75 2.8 SW 15 20 8 11 1011.6 1011.4 0.0
 
Date/Time
WST
Temp
°C
App
Temp
°C
Dew
Point
°C
Rel
Hum
%
Delta-T
°C
Wind Press
QNH
hPa
Press
MSL
hPa
Rain since
9am
mm
Dir  Spd
km/h
Gust
km/h
Spd
kts
Gust
kts
25/11:30pm 22.7 22.0 16.3 67 3.9 SSW 15 20 8 11 1011.5 1011.3 0.0
25/11:00pm 23.4 22.2 16.0 63 4.5 SW 17 22 9 12 1011.7 1011.5 0.0
25/10:30pm 24.2 22.5 13.6 51 6.2 SW 15 20 8 11 1011.9 1011.7 0.0
25/10:00pm 24.6 23.3 12.6 47 6.9 SSW 11 13 6 7 1011.7 1011.5 0.0
25/09:30pm 25.1 23.8 12.4 45 7.3 SSW 11 13 6 7 1012.0 1011.8 0.0
25/09:00pm 26.3 24.5 12.1 41 8.2 SSW 13 15 7 8 1011.8 1011.6 0.0
25/08:30pm 26.3 24.1 12.1 41 8.2 SW 15 17 8 9 1011.6 1011.4 0.0
25/08:00pm 27.4 25.4 11.5 37 9.1 SW 13 17 7 9 1011.6 1011.4 0.0
25/07:30pm 28.7 26.5 12.0 35 9.7 SW 15 20 8 11 1011.3 1011.1 0.0
25/07:00pm 30.7 28.4 11.7 31 11.1 S 15 19 8 10 1011.1 1010.9 0.0
25/06:30pm 32.5 30.6 11.8 28 12.2 S 13 17 7 9 1011.1 1010.9 0.0
25/06:00pm 33.7 31.4 10.4 24 13.5 SSW 13 20 7 11 1011.1 1010.9 0.0
25/05:30pm 34.6 32.1 12.2 25 13.4 SW 17 22 9 12 1011.1 1010.9 0.0
25/05:00pm 34.4 30.3 11.3 24 13.6 SW 24 30 13 16 1011.2 1011.0 0.0
25/04:30pm 35.3 32.3 12.6 25 13.7 WSW 20 26 11 14 1011.3 1011.1 0.0
25/04:00pm 36.4 32.2 9.7 19 15.5 WSW 22 28 12 15 1011.5 1011.3 0.0

Other Formats:

Comma delimited format used in spreadsheet applications
http://www.bom.gov.au/fwo/IDW60801/IDW60801.94609.axf

JavaScript Object Notation format (JSON) in row-major order
http://www.bom.gov.au/fwo/IDW60801/IDW60801.94609.json